sensor_id;sensor_type;location;lat;lon;timestamp;pressure;altitude;pressure_sealevel;temperature;humidity
60345;BME280;46188;52.324;8.032;2023-06-22T00:01:17;100801.09;;;19.03;100.00
60345;BME280;46188;52.324;8.032;2023-06-22T00:03:42;100793.91;;;19.07;100.00
60345;BME280;46188;52.324;8.032;2023-06-22T00:06:08;100801.09;;;19.03;100.00
60345;BME280;46188;52.324;8.032;2023-06-22T00:08:33;100799.41;;;18.99;100.00
60345;BME280;46188;52.324;8.032;2023-06-22T00:10:58;100798.78;;;18.83;100.00
60345;BME280;46188;52.324;8.032;2023-06-22T00:13:23;100792.63;;;18.76;100.00
60345;BME280;46188;52.324;8.032;2023-06-22T00:15:49;100785.59;;;18.72;100.00
60345;BME280;46188;52.324;8.032;2023-06-22T00:18:14;100782.88;;;18.75;100.00
60345;BME280;46188;52.324;8.032;2023-06-22T00:20:41;100791.75;;;18.77;100.00
60345;BME280;46188;52.324;8.032;2023-06-22T00:23:06;100787.25;;;18.79;100.00
60345;BME280;46188;52.324;8.032;2023-06-22T00:25:35;100789.09;;;18.76;100.00
60345;BME280;46188;52.324;8.032;2023-06-22T00:28:02;100784.63;;;18.76;100.00
60345;BME280;46188;52.324;8.032;2023-06-22T00:30:27;100771.22;;;18.79;100.00
60345;BME280;46188;52.324;8.032;2023-06-22T00:32:53;100767.66;;;18.80;100.00
60345;BME280;46188;52.324;8.032;2023-06-22T00:35:18;100765.91;;;18.78;100.00
60345;BME280;46188;52.324;8.032;2023-06-22T00:37:43;100768.56;;;18.78;100.00
60345;BME280;46188;52.324;8.032;2023-06-22T00:40:09;100757.97;;;18.73;100.00
60345;BME280;46188;52.324;8.032;2023-06-22T00:42:38;100754.50;;;18.68;100.00
60345;BME280;46188;52.324;8.032;2023-06-22T00:45:05;100755.50;;;18.62;100.00
60345;BME280;46188;52.324;8.032;2023-06-22T00:47:31;100754.63;;;18.62;100.00
60345;BME280;46188;52.324;8.032;2023-06-22T00:49:56;100751.06;;;18.61;100.00
60345;BME280;46188;52.324;8.032;2023-06-22T00:52:22;100747.59;;;18.56;100.00
60345;BME280;46188;52.324;8.032;2023-06-22T00:54:54;100744.09;;;18.54;100.00
60345;BME280;46188;52.324;8.032;2023-06-22T00:57:20;100738.75;;;18.53;100.00
60345;BME280;46188;52.324;8.032;2023-06-22T00:59:47;100747.84;;;18.42;100.00
60345;BME280;46188;52.324;8.032;2023-06-22T01:02:13;100743.31;;;18.48;100.00
60345;BME280;46188;52.324;8.032;2023-06-22T01:04:39;100735.28;;;18.49;100.00
60345;BME280;46188;52.324;8.032;2023-06-22T01:07:17;100739.00;;;18.39;100.00
60345;BME280;46188;52.324;8.032;2023-06-22T01:09:59;100738.34;;;18.26;100.00
60345;BME280;46188;52.324;8.032;2023-06-22T01:12:30;100740.22;;;18.19;100.00
60345;BME280;46188;52.324;8.032;2023-06-22T01:15:02;100738.59;;;18.11;100.00
60345;BME280;46188;52.324;8.032;2023-06-22T01:17:30;100741.25;;;18.11;100.00
60345;BME280;46188;52.324;8.032;2023-06-22T01:19:57;100744.09;;;17.98;100.00
60345;BME280;46188;52.324;8.032;2023-06-22T01:22:27;100740.59;;;17.95;100.00
60345;BME280;46188;52.324;8.032;2023-06-22T01:25:13;100739.81;;;17.88;100.00
60345;BME280;46188;52.324;8.032;2023-06-22T01:27:58;100737.06;;;17.94;100.00
60345;BME280;46188;52.324;8.032;2023-06-22T01:30:28;100740.63;;;17.93;100.00
60345;BME280;46188;52.324;8.032;2023-06-22T01:32:57;100742.31;;;17.97;100.00
60345;BME280;46188;52.324;8.032;2023-06-22T01:35:24;100743.22;;;17.98;100.00
60345;BME280;46188;52.324;8.032;2023-06-22T01:37:49;100743.28;;;17.93;100.00
60345;BME280;46188;52.324;8.032;2023-06-22T01:40:15;100738.81;;;17.95;100.00
60345;BME280;46188;52.324;8.032;2023-06-22T01:42:42;100737.00;;;17.97;100.00
60345;BME280;46188;52.324;8.032;2023-06-22T01:45:09;100738.00;;;17.90;100.00
60345;BME280;46188;52.324;8.032;2023-06-22T01:47:35;100738.94;;;17.89;100.00
60345;BME280;46188;52.324;8.032;2023-06-22T01:50:01;100737.97;;;17.92;100.00
60345;BME280;46188;52.324;8.032;2023-06-22T01:52:26;100741.59;;;17.89;100.00
60345;BME280;46188;52.324;8.032;2023-06-22T01:54:51;100739.78;;;17.89;100.00
60345;BME280;46188;52.324;8.032;2023-06-22T01:57:17;100746.03;;;17.88;100.00
60345;BME280;46188;52.324;8.032;2023-06-22T02:02:21;100748.34;;;17.48;100.00
60345;BME280;46188;52.324;8.032;2023-06-22T02:04:55;100748.31;;;17.51;100.00
60345;BME280;46188;52.324;8.032;2023-06-22T02:07:23;100750.09;;;17.47;100.00
60345;BME280;46188;52.324;8.032;2023-06-22T02:09:52;100756.50;;;17.34;100.00
60345;BME280;46188;52.324;8.032;2023-06-22T02:12:22;100749.41;;;17.33;100.00
60345;BME280;46188;52.324;8.032;2023-06-22T02:14:48;100747.69;;;17.29;100.00
60345;BME280;46188;52.324;8.032;2023-06-22T02:17:16;100747.69;;;17.27;100.00
60345;BME280;46188;52.324;8.032;2023-06-22T02:19:41;100744.97;;;17.33;100.00
60345;BME280;46188;52.324;8.032;2023-06-22T02:22:07;100744.00;;;17.39;100.00
60345;BME280;46188;52.324;8.032;2023-06-22T02:24:32;100747.63;;;17.33;100.00
60345;BME280;46188;52.324;8.032;2023-06-22T02:26:59;100739.72;;;17.24;100.00
60345;BME280;46188;52.324;8.032;2023-06-22T02:29:24;100744.19;;;17.25;100.00
60345;BME280;46188;52.324;8.032;2023-06-22T02:31:49;100742.47;;;17.21;100.00
60345;BME280;46188;52.324;8.032;2023-06-22T02:34:14;100738.03;;;17.19;100.00
60345;BME280;46188;52.324;8.032;2023-06-22T02:36:46;100738.88;;;17.24;100.00
60345;BME280;46188;52.324;8.032;2023-06-22T02:39:24;100738.06;;;17.17;100.00
60345;BME280;46188;52.324;8.032;2023-06-22T02:41:50;100732.91;;;17.02;100.00
60345;BME280;46188;52.324;8.032;2023-06-22T02:44:15;100740.00;;;17.03;100.00
60345;BME280;46188;52.324;8.032;2023-06-22T02:46:41;100741.78;;;17.01;100.00
60345;BME280;46188;52.324;8.032;2023-06-22T02:49:06;100742.75;;;16.96;100.00
60345;BME280;46188;52.324;8.032;2023-06-22T02:51:33;100741.94;;;16.90;100.00
60345;BME280;46188;52.324;8.032;2023-06-22T02:53:59;100740.19;;;16.81;100.00
60345;BME280;46188;52.324;8.032;2023-06-22T02:56:24;100738.38;;;16.86;100.00
60345;BME280;46188;52.324;8.032;2023-06-22T02:58:50;100744.50;;;16.97;100.00
60345;BME280;46188;52.324;8.032;2023-06-22T03:01:16;100747.94;;;17.07;100.00
60345;BME280;46188;52.324;8.032;2023-06-22T03:03:41;100748.72;;;17.17;100.00
60345;BME280;46188;52.324;8.032;2023-06-22T03:06:06;100750.56;;;17.12;100.00
60345;BME280;46188;52.324;8.032;2023-06-22T03:08:32;100750.59;;;17.09;100.00
60345;BME280;46188;52.324;8.032;2023-06-22T03:10:57;100750.66;;;17.00;100.00
60345;BME280;46188;52.324;8.032;2023-06-22T03:13:23;100749.78;;;17.02;100.00
60345;BME280;46188;52.324;8.032;2023-06-22T03:15:48;100739.09;;;17.05;100.00
60345;BME280;46188;52.324;8.032;2023-06-22T03:18:14;100739.97;;;17.04;100.00
60345;BME280;46188;52.324;8.032;2023-06-22T03:20:40;100736.44;;;17.04;100.00
60345;BME280;46188;52.324;8.032;2023-06-22T03:23:05;100738.13;;;17.11;100.00
60345;BME280;46188;52.324;8.032;2023-06-22T03:25:31;100746.91;;;17.19;100.00
60345;BME280;46188;52.324;8.032;2023-06-22T03:27:56;100742.34;;;17.30;100.00
60345;BME280;46188;52.324;8.032;2023-06-22T03:30:21;100752.16;;;17.25;100.00
60345;BME280;46188;52.324;8.032;2023-06-22T03:32:46;100750.28;;;17.35;100.00
60345;BME280;46188;52.324;8.032;2023-06-22T03:35:12;100747.53;;;17.41;100.00
60345;BME280;46188;52.324;8.032;2023-06-22T03:37:39;100749.47;;;17.28;100.00
60345;BME280;46188;52.324;8.032;2023-06-22T03:40:05;100746.78;;;17.30;100.00
60345;BME280;46188;52.324;8.032;2023-06-22T03:42:30;100742.31;;;17.32;100.00
60345;BME280;46188;52.324;8.032;2023-06-22T03:44:56;100744.06;;;17.34;100.00
60345;BME280;46188;52.324;8.032;2023-06-22T03:47:22;100737.75;;;17.42;100.00
60345;BME280;46188;52.324;8.032;2023-06-22T03:49:47;100738.53;;;17.51;100.00
60345;BME280;46188;52.324;8.032;2023-06-22T03:52:12;100744.69;;;17.55;100.00
60345;BME280;46188;52.324;8.032;2023-06-22T03:54:38;100735.81;;;17.56;100.00
60345;BME280;46188;52.324;8.032;2023-06-22T03:57:03;100743.84;;;17.51;100.00
60345;BME280;46188;52.324;8.032;2023-06-22T03:59:29;100739.44;;;17.49;100.00
60345;BME280;46188;52.324;8.032;2023-06-22T04:01:54;100739.44;;;17.47;100.00
60345;BME280;46188;52.324;8.032;2023-06-22T04:04:20;100735.91;;;17.47;100.00
60345;BME280;46188;52.324;8.032;2023-06-22T04:06:45;100735.91;;;17.47;100.00
60345;BME280;46188;52.324;8.032;2023-06-22T04:09:10;100748.31;;;17.51;100.00
60345;BME280;46188;52.324;8.032;2023-06-22T04:11:36;100746.50;;;17.51;100.00
60345;BME280;46188;52.324;8.032;2023-06-22T04:14:01;100735.78;;;17.58;100.00
60345;BME280;46188;52.324;8.032;2023-06-22T04:16:27;100748.16;;;17.60;100.00
60345;BME280;46188;52.324;8.032;2023-06-22T04:18:52;100747.28;;;17.61;100.00
60345;BME280;46188;52.324;8.032;2023-06-22T04:21:18;100745.53;;;17.59;100.00
60345;BME280;46188;52.324;8.032;2023-06-22T04:23:47;100743.00;;;17.49;100.00
60345;BME280;46188;52.324;8.032;2023-06-22T04:26:13;100742.78;;;17.63;100.00
60345;BME280;46188;52.324;8.032;2023-06-22T04:28:41;100743.56;;;17.71;100.00
60345;BME280;46188;52.324;8.032;2023-06-22T04:31:07;100740.88;;;17.75;100.00
60345;BME280;46188;52.324;8.032;2023-06-22T04:33:32;100739.00;;;17.80;100.00
60345;BME280;46188;52.324;8.032;2023-06-22T04:35:58;100731.88;;;17.82;100.00
60345;BME280;46188;52.324;8.032;2023-06-22T04:38:26;100733.59;;;17.86;100.00
60345;BME280;46188;52.324;8.032;2023-06-22T04:40:51;100739.84;;;17.83;100.00
60345;BME280;46188;52.324;8.032;2023-06-22T04:43:18;100733.44;;;17.98;100.00
60345;BME280;46188;52.324;8.032;2023-06-22T04:45:43;100734.13;;;18.11;100.00
60345;BME280;46188;52.324;8.032;2023-06-22T04:48:08;100729.72;;;18.08;100.00
60345;BME280;46188;52.324;8.032;2023-06-22T04:50:35;100729.56;;;18.19;100.00
60345;BME280;46188;52.324;8.032;2023-06-22T04:53:02;100723.16;;;18.30;100.00
60345;BME280;46188;52.324;8.032;2023-06-22T04:55:31;100729.19;;;18.41;100.00
60345;BME280;46188;52.324;8.032;2023-06-22T04:57:57;100720.03;;;18.56;100.00
60345;BME280;46188;52.324;8.032;2023-06-22T05:00:29;100729.84;;;18.55;100.00
60345;BME280;46188;52.324;8.032;2023-06-22T05:02:55;100718.19;;;18.59;100.00
60345;BME280;46188;52.324;8.032;2023-06-22T05:05:22;100720.03;;;18.56;100.00
60345;BME280;46188;52.324;8.032;2023-06-22T05:07:49;100727.19;;;18.54;100.00
60345;BME280;46188;52.324;8.032;2023-06-22T05:10:16;100721.91;;;18.51;100.00
60345;BME280;46188;52.324;8.032;2023-06-22T05:12:41;100713.88;;;18.52;100.00
60345;BME280;46188;52.324;8.032;2023-06-22T05:15:08;100717.34;;;18.57;100.00
60345;BME280;46188;52.324;8.032;2023-06-22T05:17:34;100718.91;;;18.68;100.00
60345;BME280;46188;52.324;8.032;2023-06-22T05:19:59;100712.44;;;18.81;100.00
60345;BME280;46188;52.324;8.032;2023-06-22T05:22:25;100717.66;;;18.90;100.00
60345;BME280;46188;52.324;8.032;2023-06-22T05:24:50;100715.69;;;19.00;100.00
60345;BME280;46188;52.324;8.032;2023-06-22T05:27:15;100720.09;;;19.01;100.00
60345;BME280;46188;52.324;8.032;2023-06-22T05:29:41;100725.34;;;19.06;100.00
60345;BME280;46188;52.324;8.032;2023-06-22T05:32:07;100718.88;;;19.17;100.00
60345;BME280;46188;52.324;8.032;2023-06-22T05:34:33;100721.50;;;19.19;100.00
60345;BME280;46188;52.324;8.032;2023-06-22T05:36:58;100717.88;;;19.23;100.00
60345;BME280;46188;52.324;8.032;2023-06-22T05:39:26;100720.38;;;19.31;100.00
60345;BME280;46188;52.324;8.032;2023-06-22T05:41:52;100722.97;;;19.34;100.00
60345;BME280;46188;52.324;8.032;2023-06-22T05:44:18;100723.53;;;19.50;100.00
60345;BME280;46188;52.324;8.032;2023-06-22T05:46:44;100728.72;;;19.56;100.00
60345;BME280;46188;52.324;8.032;2023-06-22T05:49:11;100723.56;;;19.48;100.00
60345;BME280;46188;52.324;8.032;2023-06-22T05:51:37;100716.38;;;19.50;100.00
60345;BME280;46188;52.324;8.032;2023-06-22T05:54:02;100717.94;;;19.61;100.00
60345;BME280;46188;52.324;8.032;2023-06-22T05:56:27;100722.25;;;19.68;100.00
60345;BME280;46188;52.324;8.032;2023-06-22T05:58:53;100718.63;;;19.70;100.00
60345;BME280;46188;52.324;8.032;2023-06-22T06:01:18;100718.63;;;19.70;100.00
60345;BME280;46188;52.324;8.032;2023-06-22T06:03:43;100716.69;;;19.79;100.00
60345;BME280;46188;52.324;8.032;2023-06-22T06:06:09;100703.28;;;19.80;100.00
60345;BME280;46188;52.324;8.032;2023-06-22T06:08:36;100713.00;;;19.84;100.00
60345;BME280;46188;52.324;8.032;2023-06-22T06:11:01;100714.28;;;20.04;100.00
60345;BME280;46188;52.324;8.032;2023-06-22T06:13:26;100709.69;;;20.09;100.00
60345;BME280;46188;52.324;8.032;2023-06-22T06:15:51;100704.97;;;20.20;100.00
60345;BME280;46188;52.324;8.032;2023-06-22T06:18:19;100709.22;;;20.29;100.00
60345;BME280;46188;52.324;8.032;2023-06-22T06:20:45;100707.34;;;20.33;100.00
60345;BME280;46188;52.324;8.032;2023-06-22T06:23:10;100705.53;;;20.33;100.00
60345;BME280;46188;52.324;8.032;2023-06-22T06:25:35;100712.91;;;20.59;99.65
60345;BME280;46188;52.324;8.032;2023-06-22T06:28:01;100714.72;;;20.59;98.45
60345;BME280;46188;52.324;8.032;2023-06-22T06:30:26;100710.22;;;20.59;98.76
60345;BME280;46188;52.324;8.032;2023-06-22T06:32:51;100715.25;;;20.72;98.45
60345;BME280;46188;52.324;8.032;2023-06-22T06:35:17;100720.53;;;20.75;98.06
60345;BME280;46188;52.324;8.032;2023-06-22T06:37:44;100714.75;;;20.90;97.29
60345;BME280;46188;52.324;8.032;2023-06-22T06:40:11;100721.09;;;20.88;96.58
60345;BME280;46188;52.324;8.032;2023-06-22T06:42:42;100719.22;;;20.91;96.60
60345;BME280;46188;52.324;8.032;2023-06-22T06:45:10;100712.66;;;21.01;96.05
60345;BME280;46188;52.324;8.032;2023-06-22T06:47:36;100716.91;;;21.10;95.60
60345;BME280;46188;52.324;8.032;2023-06-22T06:50:02;100717.75;;;21.11;95.29
60345;BME280;46188;52.324;8.032;2023-06-22T06:52:27;100713.03;;;21.20;94.70
60345;BME280;46188;52.324;8.032;2023-06-22T06:54:52;100719.09;;;21.27;94.69
60345;BME280;46188;52.324;8.032;2023-06-22T06:57:18;100716.41;;;21.27;94.67
60345;BME280;46188;52.324;8.032;2023-06-22T06:59:45;100720.56;;;21.37;94.63
60345;BME280;46188;52.324;8.032;2023-06-22T07:02:10;100720.75;;;21.61;93.20
60345;BME280;46188;52.324;8.032;2023-06-22T07:04:36;100721.31;;;21.72;92.30
60345;BME280;46188;52.324;8.032;2023-06-22T07:07:01;100718.69;;;21.99;91.45
60345;BME280;46188;52.324;8.032;2023-06-22T07:09:27;100713.00;;;22.37;89.53
60345;BME280;46188;52.324;8.032;2023-06-22T07:11:52;100704.94;;;22.37;88.33
60345;BME280;46188;52.324;8.032;2023-06-22T07:14:17;100719.09;;;22.42;87.79
60345;BME280;46188;52.324;8.032;2023-06-22T07:16:42;100718.28;;;22.65;86.47
60345;BME280;46188;52.324;8.032;2023-06-22T07:19:08;100715.28;;;22.74;85.87
60345;BME280;46188;52.324;8.032;2023-06-22T07:21:33;100711.16;;;22.64;85.98
60345;BME280;46188;52.324;8.032;2023-06-22T07:23:58;100698.88;;;22.57;86.48
60345;BME280;46188;52.324;8.032;2023-06-22T07:26:24;100703.75;;;22.45;87.50
60345;BME280;46188;52.324;8.032;2023-06-22T07:28:49;100699.06;;;22.51;87.87
60345;BME280;46188;52.324;8.032;2023-06-22T07:31:15;100690.41;;;22.42;87.23
60345;BME280;46188;52.324;8.032;2023-06-22T07:33:40;100697.34;;;22.50;87.15
60345;BME280;46188;52.324;8.032;2023-06-22T07:36:05;100701.56;;;22.57;86.78
60345;BME280;46188;52.324;8.032;2023-06-22T07:38:34;100696.91;;;22.62;86.99
60345;BME280;46188;52.324;8.032;2023-06-22T07:41:00;100696.84;;;22.63;87.02
60345;BME280;46188;52.324;8.032;2023-06-22T07:43:25;100695.63;;;22.47;86.97
60345;BME280;46188;52.324;8.032;2023-06-22T07:45:50;100693.78;;;22.74;85.72
60345;BME280;46188;52.324;8.032;2023-06-22T07:48:22;100684.69;;;23.02;84.35
60345;BME280;46188;52.324;8.032;2023-06-22T07:50:48;100688.06;;;22.83;84.94
60345;BME280;46188;52.324;8.032;2023-06-22T07:53:13;100685.25;;;22.87;85.52
60345;BME280;46188;52.324;8.032;2023-06-22T07:55:39;100683.69;;;22.81;85.32
60345;BME280;46188;52.324;8.032;2023-06-22T07:58:04;100676.28;;;22.88;85.43
60345;BME280;46188;52.324;8.032;2023-06-22T08:00:29;100684.94;;;22.96;85.29
60345;BME280;46188;52.324;8.032;2023-06-22T08:02:54;100687.53;;;22.99;84.91
60345;BME280;46188;52.324;8.032;2023-06-22T08:05:20;100678.91;;;22.64;86.71
60345;BME280;46188;52.324;8.032;2023-06-22T08:07:45;100671.59;;;22.69;86.13
60345;BME280;46188;52.324;8.032;2023-06-22T08:10:12;100678.44;;;22.53;86.77
60345;BME280;46188;52.324;8.032;2023-06-22T08:12:41;100677.81;;;22.44;87.65
60345;BME280;46188;52.324;8.032;2023-06-22T08:15:06;100675.84;;;22.50;87.13
60345;BME280;46188;52.324;8.032;2023-06-22T08:17:33;100678.50;;;22.51;87.64
60345;BME280;46188;52.324;8.032;2023-06-22T08:19:58;100671.44;;;22.47;87.94
60345;BME280;46188;52.324;8.032;2023-06-22T08:22:23;100671.19;;;22.55;88.03
60345;BME280;46188;52.324;8.032;2023-06-22T08:24:49;100665.25;;;22.70;87.47
60345;BME280;46188;52.324;8.032;2023-06-22T08:27:14;100662.78;;;22.64;87.58
60345;BME280;46188;52.324;8.032;2023-06-22T08:29:42;100670.53;;;22.73;87.88
60345;BME280;46188;52.324;8.032;2023-06-22T08:32:09;100669.59;;;22.74;87.58
60345;BME280;46188;52.324;8.032;2023-06-22T08:34:35;100667.84;;;22.73;87.25
60345;BME280;46188;52.324;8.032;2023-06-22T08:37:00;100667.56;;;22.81;86.65
60345;BME280;46188;52.324;8.032;2023-06-22T08:39:26;100675.88;;;22.98;85.97
60345;BME280;46188;52.324;8.032;2023-06-22T08:41:51;100667.25;;;22.89;86.48
60345;BME280;46188;52.324;8.032;2023-06-22T08:44:18;100671.78;;;22.88;87.06
60345;BME280;46188;52.324;8.032;2023-06-22T08:46:44;100667.88;;;22.72;87.90
60345;BME280;46188;52.324;8.032;2023-06-22T08:49:09;100665.09;;;22.50;88.67
60345;BME280;46188;52.324;8.032;2023-06-22T08:51:35;100668.81;;;22.45;89.34
60345;BME280;46188;52.324;8.032;2023-06-22T08:54:00;100667.44;;;22.59;88.82
60345;BME280;46188;52.324;8.032;2023-06-22T08:56:25;100670.13;;;22.59;88.44
60345;BME280;46188;52.324;8.032;2023-06-22T08:58:51;100673.06;;;22.53;89.00
60345;BME280;46188;52.324;8.032;2023-06-22T09:01:16;100668.91;;;22.42;89.05
60345;BME280;46188;52.324;8.032;2023-06-22T09:03:41;100655.63;;;22.39;89.33
60345;BME280;46188;52.324;8.032;2023-06-22T09:06:07;100666.84;;;22.51;88.88
60345;BME280;46188;52.324;8.032;2023-06-22T09:08:37;100652.03;;;22.64;88.79
60345;BME280;46188;52.324;8.032;2023-06-22T09:11:02;100645.75;;;22.65;88.98
60345;BME280;46188;52.324;8.032;2023-06-22T09:13:32;100646.22;;;22.76;88.77
60345;BME280;46188;52.324;8.032;2023-06-22T09:15:58;100642.78;;;22.96;87.63
60345;BME280;46188;52.324;8.032;2023-06-22T09:18:23;100634.00;;;23.16;86.48
60345;BME280;46188;52.324;8.032;2023-06-22T09:20:48;100636.66;;;23.40;85.09
60345;BME280;46188;52.324;8.032;2023-06-22T09:23:14;100629.03;;;23.51;84.08
60345;BME280;46188;52.324;8.032;2023-06-22T09:25:39;100622.97;;;23.68;83.00
60345;BME280;46188;52.324;8.032;2023-06-22T09:28:05;100622.19;;;23.65;83.92
60345;BME280;46188;52.324;8.032;2023-06-22T09:30:30;100617.91;;;23.61;83.68
60345;BME280;46188;52.324;8.032;2023-06-22T09:32:56;100610.38;;;23.69;83.17
60345;BME280;46188;52.324;8.032;2023-06-22T09:35:21;100613.09;;;23.69;83.39
60345;BME280;46188;52.324;8.032;2023-06-22T09:37:46;100605.63;;;23.75;81.80
60345;BME280;46188;52.324;8.032;2023-06-22T09:40:12;100601.44;;;23.90;80.82
60345;BME280;46188;52.324;8.032;2023-06-22T09:42:38;100606.94;;;24.30;79.28
60345;BME280;46188;52.324;8.032;2023-06-22T09:45:04;100607.34;;;24.41;79.41
60345;BME280;46188;52.324;8.032;2023-06-22T09:47:30;100610.63;;;24.48;78.79
60345;BME280;46188;52.324;8.032;2023-06-22T09:49:55;100608.81;;;24.48;77.91
60345;BME280;46188;52.324;8.032;2023-06-22T09:52:21;100616.34;;;24.61;78.02
60345;BME280;46188;52.324;8.032;2023-06-22T09:54:46;100615.81;;;24.73;77.05
60345;BME280;46188;52.324;8.032;2023-06-22T09:57:11;100614.56;;;24.80;76.71
60345;BME280;46188;52.324;8.032;2023-06-22T09:59:37;100616.41;;;24.80;76.59
60345;BME280;46188;52.324;8.032;2023-06-22T10:02:03;100619.09;;;24.99;75.80
60345;BME280;46188;52.324;8.032;2023-06-22T10:04:28;100615.84;;;25.11;75.52
60345;BME280;46188;52.324;8.032;2023-06-22T10:06:54;100609.13;;;25.20;75.88
60345;BME280;46188;52.324;8.032;2023-06-22T10:09:19;100603.88;;;25.17;75.15
60345;BME280;46188;52.324;8.032;2023-06-22T10:11:44;100607.09;;;25.25;75.04
60345;BME280;46188;52.324;8.032;2023-06-22T10:14:09;100605.44;;;25.41;74.17
60345;BME280;46188;52.324;8.032;2023-06-22T10:16:36;100591.78;;;25.64;73.16
60345;BME280;46188;52.324;8.032;2023-06-22T10:19:01;100592.00;;;25.59;73.21
60345;BME280;46188;52.324;8.032;2023-06-22T10:21:27;100589.72;;;25.69;73.48
60345;BME280;46188;52.324;8.032;2023-06-22T10:23:53;100574.38;;;25.87;72.18
60345;BME280;46188;52.324;8.032;2023-06-22T10:26:18;100577.28;;;26.01;71.81
60345;BME280;46188;52.324;8.032;2023-06-22T10:28:44;100576.47;;;26.17;70.98
60345;BME280;46188;52.324;8.032;2023-06-22T10:31:09;100584.13;;;26.08;71.69
60345;BME280;46188;52.324;8.032;2023-06-22T10:33:34;100566.75;;;25.77;72.57
60345;BME280;46188;52.324;8.032;2023-06-22T10:35:59;100566.34;;;25.68;73.37
60345;BME280;46188;52.324;8.032;2023-06-22T10:38:25;100563.72;;;25.66;73.15
60345;BME280;46188;52.324;8.032;2023-06-22T10:40:50;100565.56;;;25.66;73.37
60345;BME280;46188;52.324;8.032;2023-06-22T10:43:15;100565.72;;;25.63;73.28
60345;BME280;46188;52.324;8.032;2023-06-22T10:45:41;100571.69;;;25.69;73.21
60345;BME280;46188;52.324;8.032;2023-06-22T10:48:06;100569.53;;;25.76;73.57
60345;BME280;46188;52.324;8.032;2023-06-22T10:50:31;100566.13;;;25.90;73.10
60345;BME280;46188;52.324;8.032;2023-06-22T10:52:57;100574.22;;;25.90;72.90
60345;BME280;46188;52.324;8.032;2023-06-22T10:55:22;100568.03;;;25.88;72.61
60345;BME280;46188;52.324;8.032;2023-06-22T10:57:48;100562.56;;;25.89;72.56
60345;BME280;46188;52.324;8.032;2023-06-22T11:00:14;100557.16;;;25.89;72.12
60345;BME280;46188;52.324;8.032;2023-06-22T11:02:40;100559.97;;;26.05;71.25
60345;BME280;46188;52.324;8.032;2023-06-22T11:05:06;100562.41;;;26.10;71.61
60345;BME280;46188;52.324;8.032;2023-06-22T11:07:31;100570.78;;;26.05;71.01
60345;BME280;46188;52.324;8.032;2023-06-22T11:09:57;100563.69;;;26.20;70.66
60345;BME280;46188;52.324;8.032;2023-06-22T11:12:23;100559.63;;;26.11;70.69
60345;BME280;46188;52.324;8.032;2023-06-22T11:14:48;100567.66;;;26.13;70.48
60345;BME280;46188;52.324;8.032;2023-06-22T11:17:15;100568.50;;;26.48;69.66
60345;BME280;46188;52.324;8.032;2023-06-22T11:19:40;100559.97;;;26.56;68.66
60345;BME280;46188;52.324;8.032;2023-06-22T11:22:05;100559.78;;;26.59;68.64
60345;BME280;46188;52.324;8.032;2023-06-22T11:24:31;100544.56;;;26.41;69.26
60345;BME280;46188;52.324;8.032;2023-06-22T11:26:57;100545.16;;;26.30;70.49
60345;BME280;46188;52.324;8.032;2023-06-22T11:29:22;100552.69;;;26.41;70.59
60345;BME280;46188;52.324;8.032;2023-06-22T11:31:48;100546.44;;;26.23;70.77
60345;BME280;46188;52.324;8.032;2023-06-22T11:34:13;100537.63;;;26.02;71.33
60345;BME280;46188;52.324;8.032;2023-06-22T11:36:39;100528.56;;;26.03;71.80
60345;BME280;46188;52.324;8.032;2023-06-22T11:39:04;100529.28;;;26.06;72.09
60345;BME280;46188;52.324;8.032;2023-06-22T11:41:30;100520.88;;;26.12;71.61
60345;BME280;46188;52.324;8.032;2023-06-22T11:43:55;100516.38;;;26.29;70.74
60345;BME280;46188;52.324;8.032;2023-06-22T11:46:20;100505.34;;;26.33;71.12
60345;BME280;46188;52.324;8.032;2023-06-22T11:48:46;100490.59;;;26.39;71.07
60345;BME280;46188;52.324;8.032;2023-06-22T11:51:11;100489.59;;;26.58;69.45
60345;BME280;46188;52.324;8.032;2023-06-22T11:53:36;100485.06;;;26.58;67.92
60345;BME280;46188;52.324;8.032;2023-06-22T11:56:02;100483.63;;;26.68;68.89
60345;BME280;46188;52.324;8.032;2023-06-22T11:58:27;100477.09;;;26.88;67.53
60345;BME280;46188;52.324;8.032;2023-06-22T12:00:53;100478.91;;;26.88;67.08
60345;BME280;46188;52.324;8.032;2023-06-22T12:03:19;100475.16;;;26.75;67.82
60345;BME280;46188;52.324;8.032;2023-06-22T12:05:46;100466.78;;;26.63;67.79
60345;BME280;46188;52.324;8.032;2023-06-22T12:08:11;100473.97;;;26.63;67.98
60345;BME280;46188;52.324;8.032;2023-06-22T12:10:37;100468.94;;;26.73;68.28
60345;BME280;46188;52.324;8.032;2023-06-22T12:13:02;100468.56;;;26.63;68.68
60345;BME280;46188;52.324;8.032;2023-06-22T12:15:27;100459.47;;;26.81;68.75
60345;BME280;46188;52.324;8.032;2023-06-22T12:17:53;100459.53;;;26.96;68.69
60345;BME280;46188;52.324;8.032;2023-06-22T12:20:18;100459.34;;;26.99;67.32
60345;BME280;46188;52.324;8.032;2023-06-22T12:22:43;100463.03;;;26.82;66.55
60345;BME280;46188;52.324;8.032;2023-06-22T12:25:09;100461.97;;;26.84;65.69
60345;BME280;46188;52.324;8.032;2023-06-22T12:27:35;100467.22;;;26.87;65.81
60345;BME280;46188;52.324;8.032;2023-06-22T12:30:01;100465.91;;;26.79;65.80
60345;BME280;46188;52.324;8.032;2023-06-22T12:32:26;100476.53;;;26.66;66.91
60345;BME280;46188;52.324;8.032;2023-06-22T12:34:51;100479.56;;;26.60;67.52
60345;BME280;46188;52.324;8.032;2023-06-22T12:37:17;100471.03;;;26.51;67.83
60345;BME280;46188;52.324;8.032;2023-06-22T12:39:42;100472.22;;;26.30;67.82
60345;BME280;46188;52.324;8.032;2023-06-22T12:42:08;100477.84;;;26.25;68.33